createdAt,value
2022-11-08T00:00:11.438Z,22.65
2022-11-08T00:02:40.239Z,22.37
2022-11-08T00:05:27.251Z,24.40
2022-11-08T00:08:15.022Z,24.77
2022-11-08T00:11:02.201Z,25.70
2022-11-08T00:13:49.627Z,22.92
2022-11-08T00:16:17.927Z,23.08
2022-11-08T00:18:47.400Z,18.15
2022-11-08T00:21:16.156Z,24.05
2022-11-08T00:23:44.944Z,21.42
2022-11-08T00:26:13.728Z,19.58
2022-11-08T00:28:41.554Z,24.75
2022-11-08T00:31:08.995Z,20.75
2022-11-08T00:33:37.468Z,21.25
2022-11-08T00:36:05.182Z,25.33
2022-11-08T00:38:32.878Z,26.58
2022-11-08T00:41:00.826Z,25.12
2022-11-08T00:43:28.624Z,27.35
2022-11-08T00:45:56.133Z,30.15
2022-11-08T00:48:24.077Z,26.23
2022-11-08T00:50:51.533Z,23.02
2022-11-08T00:53:19.102Z,28.65
2022-11-08T00:55:46.866Z,23.00
2022-11-08T00:58:14.516Z,26.40
2022-11-08T01:00:42.166Z,22.10
2022-11-08T01:03:21.700Z,24.37
2022-11-08T01:05:50.056Z,28.83
2022-11-08T01:08:18.760Z,23.20
2022-11-08T01:10:49.016Z,26.42
2022-11-08T01:13:17.052Z,23.02
2022-11-08T01:15:45.463Z,23.65
2022-11-08T01:18:14.787Z,25.92
2022-11-08T01:20:43.962Z,26.65
2022-11-08T01:23:12.616Z,25.85
2022-11-08T01:25:42.261Z,22.83
2022-11-08T01:28:10.793Z,20.67
2022-11-08T01:30:39.806Z,20.35
2022-11-08T01:33:07.596Z,26.67
2022-11-08T01:35:36.357Z,25.95
2022-11-08T01:38:04.853Z,20.33
2022-11-08T01:40:32.876Z,20.10
2022-11-08T01:43:00.432Z,19.75
2022-11-08T01:46:05.919Z,20.65
2022-11-08T01:48:33.292Z,22.33
2022-11-08T01:51:01.045Z,22.00
2022-11-08T01:53:28.911Z,23.00
2022-11-08T01:55:56.596Z,27.87
2022-11-08T01:58:28.436Z,22.02
2022-11-08T02:00:57.184Z,18.87
2022-11-08T02:03:25.063Z,20.67
2022-11-08T02:05:52.509Z,15.95
2022-11-08T02:08:21.426Z,18.25
2022-11-08T02:10:51.425Z,18.58
2022-11-08T02:13:23.412Z,15.38
2022-11-08T02:15:51.581Z,15.60
2022-11-08T02:18:21.167Z,15.15
2022-11-08T02:21:00.871Z,16.87
2022-11-08T02:23:52.277Z,17.33
2022-11-08T02:26:23.753Z,17.15
2022-11-08T02:28:51.671Z,14.55
2022-11-08T02:31:20.338Z,14.38
2022-11-08T02:33:48.560Z,14.75
2022-11-08T02:36:20.544Z,16.87
2022-11-08T02:38:53.438Z,16.73
2022-11-08T02:41:21.343Z,16.35
2022-11-08T02:43:48.903Z,17.23
2022-11-08T02:46:16.353Z,15.32
2022-11-08T02:48:44.182Z,16.58
2022-11-08T02:51:11.602Z,15.85
2022-11-08T02:53:38.938Z,16.27
2022-11-08T02:56:06.958Z,18.05
2022-11-08T02:58:34.287Z,16.48
2022-11-08T03:01:01.806Z,16.37
2022-11-08T03:03:29.653Z,17.62
2022-11-08T03:05:57.530Z,16.15
2022-11-08T03:08:25.947Z,15.02
2022-11-08T03:28:09.280Z,20.48
2022-11-08T03:30:37.089Z,22.17
2022-11-08T03:33:05.076Z,19.83
2022-11-08T03:35:32.546Z,18.33
2022-11-08T03:38:00.169Z,16.45
2022-11-08T03:40:28.132Z,18.67
2022-11-08T03:42:57.449Z,18.02
2022-11-08T03:45:25.081Z,15.88
2022-11-08T03:47:52.510Z,19.23
2022-11-08T03:50:19.859Z,17.40
2022-11-08T03:52:49.954Z,19.50
2022-11-08T03:55:18.668Z,17.95
2022-11-08T03:57:48.131Z,20.50
2022-11-08T04:00:19.098Z,21.80
2022-11-08T04:02:46.940Z,18.15
2022-11-08T04:05:15.100Z,23.35
2022-11-08T04:07:43.070Z,19.70
2022-11-08T04:10:11.490Z,16.37
2022-11-08T04:15:47.223Z,16.20
2022-11-08T04:18:33.419Z,18.17
2022-11-08T04:21:19.377Z,17.27
2022-11-08T04:23:49.008Z,17.20
2022-11-08T04:26:17.065Z,22.05
2022-11-08T04:28:44.462Z,17.27
2022-11-08T04:31:14.957Z,18.08
2022-11-08T04:33:42.366Z,20.77
2022-11-08T04:36:15.447Z,28.75
2022-11-08T04:38:43.284Z,20.85
2022-11-08T04:41:12.825Z,23.52
2022-11-08T04:43:40.462Z,24.08
2022-11-08T04:46:10.906Z,26.62
2022-11-08T04:48:38.374Z,27.83
2022-11-08T04:51:08.076Z,34.58
2022-11-08T04:53:35.771Z,25.08
2022-11-08T04:56:08.413Z,29.77
2022-11-08T04:58:40.486Z,28.20
2022-11-08T05:01:09.604Z,36.67
2022-11-08T05:03:37.894Z,39.60
2022-11-08T05:06:08.074Z,27.98
2022-11-08T05:08:35.420Z,32.92
2022-11-08T05:11:05.007Z,31.10
2022-11-08T05:13:32.499Z,43.28
2022-11-08T05:16:08.410Z,30.52
2022-11-08T05:18:36.183Z,44.85
2022-11-08T05:21:22.724Z,31.25
2022-11-08T05:23:51.125Z,29.60
2022-11-08T05:26:19.452Z,21.65
2022-11-08T05:28:47.832Z,32.03
2022-11-08T05:31:15.991Z,24.52
2022-11-08T05:33:44.253Z,30.05
2022-11-08T05:36:15.180Z,25.02
2022-11-08T05:38:43.311Z,24.90
2022-11-08T05:41:18.480Z,25.23
2022-11-08T05:43:48.283Z,23.62
2022-11-08T05:46:16.887Z,24.20
2022-11-08T05:48:44.605Z,26.83
2022-11-08T05:51:13.072Z,24.65
2022-11-08T05:53:41.132Z,24.00
2022-11-08T05:56:08.503Z,24.92
2022-11-08T05:58:36.647Z,30.20
2022-11-08T06:01:06.309Z,25.92
2022-11-08T06:03:34.139Z,59.15
2022-11-08T06:06:03.374Z,40.70
2022-11-08T06:08:30.900Z,36.45
2022-11-08T06:11:06.277Z,21.87
2022-11-08T06:13:34.392Z,30.95
2022-11-08T06:16:03.940Z,21.12
2022-11-08T06:18:32.038Z,25.58
2022-11-08T06:21:00.456Z,20.77
2022-11-08T06:23:28.396Z,29.00
2022-11-08T06:25:56.043Z,44.22
2022-11-08T06:28:24.139Z,37.47
2022-11-08T06:30:51.987Z,26.95
2022-11-08T06:33:20.523Z,23.40
2022-11-08T06:35:48.215Z,24.40
2022-11-08T06:38:15.968Z,28.80
2022-11-08T06:40:44.957Z,25.48
2022-11-08T06:43:17.953Z,26.83
2022-11-08T06:45:47.346Z,26.05
2022-11-08T06:48:15.111Z,29.27
2022-11-08T06:50:42.868Z,27.98
2022-11-08T06:53:14.717Z,28.73
2022-11-08T06:55:42.275Z,30.85
2022-11-08T06:58:11.094Z,39.83
2022-11-08T07:00:38.555Z,53.33
2022-11-08T07:03:05.975Z,60.25
2022-11-08T07:05:35.101Z,60.45
2022-11-08T07:08:04.719Z,53.72
2022-11-08T07:10:32.953Z,84.53
2022-11-08T07:13:09.929Z,61.13
2022-11-08T07:15:37.891Z,57.33
2022-11-08T07:18:08.272Z,59.03
2022-11-08T07:20:36.474Z,53.58
2022-11-08T07:23:06.747Z,55.78
2022-11-08T07:25:34.731Z,44.05
2022-11-08T07:28:05.527Z,27.92
2022-11-08T07:30:35.325Z,27.87
2022-11-08T07:33:02.796Z,25.37
2022-11-08T07:35:30.675Z,52.42
2022-11-08T07:37:58.345Z,70.12
2022-11-08T07:40:25.926Z,51.10
2022-11-08T07:45:42.026Z,30.17
2022-11-08T07:48:12.817Z,29.63
2022-11-08T07:50:59.308Z,21.50
2022-11-08T07:53:39.276Z,26.30
2022-11-08T07:56:29.632Z,20.33
2022-11-08T07:59:16.155Z,21.92
2022-11-08T08:01:50.619Z,18.92
2022-11-08T08:04:41.031Z,17.30
2022-11-08T08:07:30.957Z,15.38
2022-11-08T08:10:37.085Z,28.38
2022-11-08T08:13:13.367Z,27.05
2022-11-08T08:15:53.063Z,31.58
2022-11-08T08:18:21.830Z,27.45
2022-11-08T08:20:50.439Z,23.55
2022-11-08T08:23:19.764Z,18.80
2022-11-08T08:25:48.539Z,25.95
2022-11-08T08:28:26.221Z,24.08
2022-11-08T08:30:55.024Z,31.85
2022-11-08T08:33:29.492Z,21.25
2022-11-08T08:35:57.942Z,26.45
2022-11-08T08:38:26.904Z,26.37
2022-11-08T08:40:59.839Z,28.10
2022-11-08T08:43:33.305Z,20.95
2022-11-08T08:46:21.611Z,45.15
2022-11-08T08:48:49.927Z,24.00
2022-11-08T08:51:19.810Z,28.62
2022-11-08T08:54:06.216Z,31.12
2022-11-08T08:56:52.815Z,25.92
2022-11-08T09:02:09.493Z,28.08
2022-11-08T09:04:48.399Z,28.80
2022-11-08T09:07:17.642Z,29.90
2022-11-08T09:09:51.798Z,31.50
2022-11-08T09:12:19.660Z,29.70
2022-11-08T09:14:47.175Z,31.70
2022-11-08T09:17:14.908Z,35.38
2022-11-08T09:19:42.727Z,36.53
2022-11-08T09:22:10.462Z,34.35
2022-11-08T09:24:38.327Z,34.20
2022-11-08T09:27:06.073Z,36.15
2022-11-08T09:29:33.972Z,38.58
2022-11-08T09:32:01.714Z,42.92
2022-11-08T09:34:29.518Z,41.25
2022-11-08T09:36:57.006Z,45.12
2022-11-08T09:39:24.360Z,43.58
2022-11-08T09:42:31.209Z,40.53
2022-11-08T09:44:58.583Z,38.60
2022-11-08T09:47:30.768Z,44.83
2022-11-08T09:50:06.227Z,43.05
2022-11-08T09:52:35.128Z,42.60
2022-11-08T09:55:30.589Z,46.25
2022-11-08T09:58:14.491Z,41.80
2022-11-08T10:00:41.931Z,40.75
2022-11-08T10:03:13.658Z,39.80
2022-11-08T10:06:03.686Z,40.65
2022-11-08T10:08:43.142Z,42.25
2022-11-08T10:11:37.860Z,45.08
2022-11-08T10:14:23.902Z,49.28
2022-11-08T10:16:57.458Z,45.60
2022-11-08T10:19:48.669Z,50.23
2022-11-08T10:22:53.326Z,44.45
2022-11-08T10:25:26.809Z,46.40
2022-11-08T10:27:56.585Z,47.40
2022-11-08T10:30:30.810Z,50.97
2022-11-08T10:32:59.889Z,49.90
2022-11-08T10:35:30.392Z,49.60
2022-11-08T10:37:59.227Z,48.60
2022-11-08T10:40:49.903Z,52.75
2022-11-08T10:43:36.650Z,53.80
2022-11-08T10:46:05.349Z,53.40
2022-11-08T10:48:38.904Z,51.05
2022-11-08T10:51:07.993Z,50.85
2022-11-08T10:53:44.140Z,48.85
2022-11-08T10:56:12.310Z,52.85
2022-11-08T10:58:42.388Z,55.97
2022-11-08T11:01:17.301Z,57.45
2022-11-08T11:03:46.432Z,49.30
2022-11-08T11:06:40.217Z,51.85
2022-11-08T11:09:20.825Z,53.85
2022-11-08T11:11:56.990Z,47.88
2022-11-08T11:14:24.839Z,50.95
2022-11-08T11:17:02.365Z,52.80
2022-11-08T11:19:30.451Z,54.92
2022-11-08T11:22:03.333Z,52.90
2022-11-08T11:24:31.443Z,45.95
2022-11-08T11:27:04.846Z,51.30
2022-11-08T11:29:34.856Z,52.13
2022-11-08T11:32:35.210Z,51.37
2022-11-08T11:35:04.633Z,48.38
2022-11-08T11:37:44.138Z,51.33
2022-11-08T11:40:34.968Z,46.05
2022-11-08T11:43:58.302Z,49.63
2022-11-08T11:46:40.188Z,45.58
2022-11-08T11:49:14.615Z,40.80
2022-11-08T11:51:42.411Z,45.67
2022-11-08T11:54:14.134Z,45.78
2022-11-08T11:57:02.444Z,44.22
2022-11-08T11:59:38.873Z,46.97
2022-11-08T12:02:23.575Z,45.88
2022-11-08T12:05:02.046Z,44.85
2022-11-08T12:07:32.909Z,47.60
2022-11-08T12:10:04.312Z,45.72
2022-11-08T12:13:04.100Z,44.40
2022-11-08T12:15:41.567Z,42.33
2022-11-08T12:18:40.945Z,42.55
2022-11-08T12:21:14.821Z,41.45
2022-11-08T12:23:54.432Z,40.28
2022-11-08T12:26:28.434Z,41.65
2022-11-08T12:29:18.401Z,40.80
2022-11-08T12:32:12.893Z,42.90
2022-11-08T12:35:03.898Z,40.43
2022-11-08T12:38:11.344Z,39.97
2022-11-08T12:40:53.741Z,39.50
2022-11-08T12:43:37.842Z,40.12
2022-11-08T12:46:09.448Z,37.17
2022-11-08T12:48:43.884Z,39.45
2022-11-08T12:51:20.435Z,37.33
2022-11-08T12:54:12.685Z,38.75
2022-11-08T12:56:43.846Z,37.00
2022-11-08T12:59:51.397Z,36.50
2022-11-08T13:02:23.111Z,36.35
2022-11-08T13:05:03.315Z,37.22
2022-11-08T13:07:51.693Z,35.78
2022-11-08T13:10:47.592Z,38.30
2022-11-08T13:13:49.594Z,35.92
2022-11-08T13:16:18.433Z,36.20
2022-11-08T13:18:57.083Z,37.15
2022-11-08T13:21:30.565Z,39.85
2022-11-08T13:27:42.222Z,33.25
2022-11-08T13:30:12.938Z,35.75
2022-11-08T13:32:43.279Z,35.15
2022-11-08T13:35:22.017Z,35.22
2022-11-08T13:38:14.412Z,36.45
2022-11-08T13:40:59.909Z,37.67
2022-11-08T13:43:29.861Z,34.72
2022-11-08T13:46:20.074Z,34.20
2022-11-08T13:49:05.096Z,36.20
2022-11-08T13:51:36.831Z,35.60
2022-11-08T13:54:31.105Z,35.80
2022-11-08T13:57:03.617Z,35.72
2022-11-08T13:59:31.205Z,33.47
2022-11-08T14:02:18.814Z,36.33
2022-11-08T14:04:47.048Z,39.97
2022-11-08T14:07:22.089Z,40.90
2022-11-08T14:10:06.249Z,38.13
2022-11-08T14:12:39.960Z,38.97
2022-11-08T14:15:18.735Z,35.78
2022-11-08T14:17:49.306Z,34.90
2022-11-08T14:20:23.031Z,34.53
2022-11-08T14:22:51.361Z,33.17
2022-11-08T14:25:27.217Z,39.65
2022-11-08T14:27:56.853Z,41.37
2022-11-08T14:30:25.297Z,38.95
2022-11-08T14:33:08.060Z,38.72
2022-11-08T14:35:36.308Z,36.92
2022-11-08T14:38:04.327Z,40.80
2022-11-08T14:40:31.863Z,38.22
2022-11-08T14:42:59.630Z,37.58
2022-11-08T14:45:29.232Z,37.75
2022-11-08T14:48:03.611Z,39.10
2022-11-08T14:53:46.578Z,37.30
2022-11-08T14:56:22.499Z,35.58
2022-11-08T14:58:51.959Z,36.35
2022-11-08T15:01:23.834Z,34.63
2022-11-08T15:04:03.722Z,35.63
2022-11-08T15:06:34.387Z,36.42
2022-11-08T15:09:03.564Z,37.10
2022-11-08T15:11:34.111Z,37.20
2022-11-08T15:14:17.055Z,35.55
2022-11-08T15:16:50.315Z,40.25
2022-11-08T15:19:39.886Z,44.63
2022-11-08T15:22:26.776Z,45.30
2022-11-08T15:25:24.710Z,40.95
2022-11-08T15:28:12.739Z,40.40
2022-11-08T15:30:44.286Z,44.20
2022-11-08T15:33:28.776Z,45.40
2022-11-08T15:35:56.213Z,43.13
2022-11-08T15:38:36.808Z,45.60
2022-11-08T15:41:06.920Z,47.40
2022-11-08T15:43:37.916Z,43.20
2022-11-08T15:46:06.949Z,48.55
2022-11-08T15:48:35.633Z,54.78
2022-11-08T15:51:05.541Z,55.28
2022-11-08T15:53:33.137Z,54.13
2022-11-08T15:56:05.844Z,63.00
2022-11-08T15:58:36.661Z,56.63
2022-11-08T16:01:05.473Z,61.17
2022-11-08T16:03:39.526Z,65.70
2022-11-08T16:06:09.811Z,61.70
2022-11-08T16:08:38.197Z,67.68
2022-11-08T16:11:12.556Z,67.05
2022-11-08T16:13:40.749Z,70.18
2022-11-08T16:16:13.984Z,70.32
2022-11-08T16:18:42.778Z,71.03
2022-11-08T16:21:12.784Z,77.47
2022-11-08T16:23:41.383Z,77.65
2022-11-08T16:26:15.435Z,73.68
2022-11-08T16:28:43.659Z,75.70
2022-11-08T16:31:16.321Z,81.87
2022-11-08T16:33:45.425Z,76.10
2022-11-08T16:36:21.565Z,74.15
2022-11-08T16:38:57.057Z,70.20
2022-11-08T16:41:26.857Z,70.35
2022-11-08T16:43:57.017Z,76.20
2022-11-08T16:46:25.553Z,73.35
2022-11-08T16:48:58.741Z,73.60
2022-11-08T16:51:27.927Z,76.80
2022-11-08T16:53:55.907Z,81.35
2022-11-08T16:56:24.190Z,73.18
2022-11-08T16:58:52.244Z,78.75
2022-11-08T17:01:24.117Z,87.35
2022-11-08T17:03:52.690Z,67.20
2022-11-08T17:06:21.122Z,71.53
2022-11-08T17:08:49.391Z,73.95
2022-11-08T17:11:20.113Z,79.10
2022-11-08T17:13:49.065Z,77.47
2022-11-08T17:16:18.881Z,77.15
2022-11-08T17:18:52.523Z,81.12
2022-11-08T17:24:09.690Z,73.53
2022-11-08T17:26:37.816Z,79.97
2022-11-08T17:29:07.098Z,76.68
2022-11-08T17:31:35.454Z,88.85
2022-11-08T17:34:03.558Z,78.25
2022-11-08T17:36:31.837Z,79.60
2022-11-08T17:39:00.070Z,75.07
2022-11-08T17:41:30.416Z,85.47
2022-11-08T17:43:59.572Z,73.32
2022-11-08T17:46:30.228Z,82.75
2022-11-08T17:48:58.817Z,83.40
2022-11-08T17:51:30.183Z,82.97
2022-11-08T17:53:58.496Z,75.45
2022-11-08T17:56:26.401Z,83.95
2022-11-08T17:58:54.743Z,78.40
2022-11-08T18:01:23.539Z,85.97
2022-11-08T18:03:51.511Z,89.62
2022-11-08T18:06:20.609Z,86.80
2022-11-08T18:08:48.377Z,84.35
2022-11-08T18:11:16.208Z,88.00
2022-11-08T18:13:44.215Z,80.82
2022-11-08T18:16:17.800Z,79.32
2022-11-08T18:18:46.612Z,77.70
2022-11-08T18:21:15.540Z,75.47
2022-11-08T18:23:45.313Z,91.05
2022-11-08T18:26:14.585Z,82.75
2022-11-08T18:28:44.262Z,82.93
2022-11-08T18:31:15.146Z,76.85
2022-11-08T18:33:44.368Z,76.87
2022-11-08T18:36:23.523Z,79.45
2022-11-08T18:38:52.656Z,78.72
2022-11-08T18:41:27.692Z,81.07
2022-11-08T18:43:56.442Z,77.32
2022-11-08T18:46:26.676Z,78.78
2022-11-08T18:48:55.846Z,74.53
2022-11-08T18:51:27.244Z,83.22
2022-11-08T18:53:56.083Z,72.20
2022-11-08T18:56:24.618Z,83.25
2022-11-08T18:58:52.292Z,84.15
2022-11-08T19:01:21.234Z,82.20
2022-11-08T19:03:50.832Z,78.55
2022-11-08T19:06:20.695Z,79.50
2022-11-08T19:08:49.154Z,75.30
2022-11-08T19:11:21.987Z,84.30
2022-11-08T19:13:50.765Z,84.18
2022-11-08T19:16:20.587Z,81.55
2022-11-08T19:18:53.021Z,96.57
2022-11-08T19:21:24.666Z,92.12
2022-11-08T19:23:57.476Z,81.60
2022-11-08T19:26:26.981Z,88.28
2022-11-08T19:28:56.127Z,81.18
2022-11-08T19:31:26.265Z,83.95
2022-11-08T19:33:55.052Z,80.20
2022-11-08T19:36:28.686Z,86.05
2022-11-08T19:38:57.868Z,80.00
2022-11-08T19:41:30.227Z,84.28
2022-11-08T19:43:58.675Z,78.25
2022-11-08T19:46:29.458Z,80.43
2022-11-08T19:49:02.916Z,80.78
2022-11-08T19:51:35.157Z,76.43
2022-11-08T19:54:10.501Z,86.50
2022-11-08T19:59:27.323Z,74.22
2022-11-08T20:02:04.605Z,76.97
2022-11-08T20:04:33.333Z,87.68
2022-11-08T20:07:01.155Z,79.85
2022-11-08T20:09:37.844Z,77.97
2022-11-08T20:12:06.533Z,74.25
2022-11-08T20:14:34.752Z,78.60
2022-11-08T20:17:02.761Z,78.05
2022-11-08T20:19:32.178Z,86.97
2022-11-08T20:22:00.276Z,78.28
2022-11-08T20:24:28.530Z,79.45
2022-11-08T20:26:57.534Z,75.65
2022-11-08T20:29:26.184Z,76.07
2022-11-08T20:31:54.832Z,70.57
2022-11-08T20:34:23.136Z,74.18
2022-11-08T20:36:51.336Z,73.95
2022-11-08T20:39:20.548Z,73.80
2022-11-08T20:41:49.331Z,73.07
2022-11-08T20:44:18.037Z,71.25
2022-11-08T20:46:46.359Z,74.07
2022-11-08T20:49:14.842Z,77.37
2022-11-08T20:51:44.354Z,75.87
2022-11-08T20:54:13.761Z,76.80
2022-11-08T20:56:43.406Z,76.85
2022-11-08T20:59:11.553Z,70.85
2022-11-08T21:01:39.686Z,79.80
2022-11-08T21:04:09.319Z,69.55
2022-11-08T21:06:37.723Z,80.12
2022-11-08T21:09:32.814Z,72.78
2022-11-08T21:11:55.512Z,69.18
2022-11-08T21:14:27.521Z,76.10
2022-11-08T21:19:43.676Z,75.37
2022-11-08T21:22:18.254Z,68.95
2022-11-08T21:24:48.531Z,71.57
2022-11-08T21:27:17.252Z,74.87
2022-11-08T21:29:45.040Z,79.15
2022-11-08T21:32:13.414Z,72.80
2022-11-08T21:34:46.363Z,75.68
2022-11-08T21:37:14.838Z,71.78
2022-11-08T21:39:44.284Z,66.47
2022-11-08T21:42:12.103Z,70.22
2022-11-08T21:44:40.088Z,67.03
2022-11-08T21:47:08.145Z,71.70
2022-11-08T21:49:35.921Z,71.37
2022-11-08T21:52:03.881Z,70.32
2022-11-08T21:54:31.702Z,66.53
2022-11-08T21:56:59.536Z,66.95
2022-11-08T21:59:27.122Z,76.15
2022-11-08T22:01:54.790Z,78.75
2022-11-08T22:04:22.723Z,68.60
2022-11-08T22:06:50.362Z,68.65
2022-11-08T22:09:17.861Z,71.97
2022-11-08T22:11:45.814Z,74.57
2022-11-08T22:14:13.294Z,66.97
2022-11-08T22:16:40.914Z,77.30
2022-11-08T22:19:09.220Z,64.68
2022-11-08T22:21:40.432Z,66.20
2022-11-08T22:24:14.373Z,65.45
2022-11-08T22:26:42.317Z,67.53
2022-11-08T22:29:10.489Z,69.37
2022-11-08T22:31:38.434Z,71.53
2022-11-08T22:34:08.303Z,68.82
2022-11-08T22:36:44.543Z,71.57
2022-11-08T22:39:14.417Z,68.20
2022-11-08T22:41:43.527Z,64.25
2022-11-08T22:44:13.018Z,65.72
2022-11-08T22:46:41.823Z,71.40
2022-11-08T22:49:10.556Z,67.55
2022-11-08T22:51:39.098Z,73.03
2022-11-08T22:54:06.920Z,65.30
2022-11-08T22:56:35.295Z,75.15
2022-11-08T22:59:02.971Z,72.95
2022-11-08T23:01:30.373Z,73.75
2022-11-08T23:03:58.201Z,75.07
2022-11-08T23:06:26.131Z,70.78
2022-11-08T23:08:53.907Z,72.57
2022-11-08T23:11:40.214Z,71.20
2022-11-08T23:14:32.323Z,66.97
2022-11-08T23:17:03.490Z,70.47
2022-11-08T23:19:49.649Z,69.53
2022-11-08T23:22:36.908Z,73.22
2022-11-08T23:25:04.882Z,70.72
2022-11-08T23:27:51.337Z,71.43
2022-11-08T23:30:37.772Z,75.03
2022-11-08T23:33:06.965Z,67.07
2022-11-08T23:35:34.738Z,69.53
2022-11-08T23:38:02.227Z,74.15
2022-11-08T23:40:48.705Z,68.47
2022-11-08T23:43:36.591Z,75.53
2022-11-08T23:46:11.825Z,73.30
2022-11-08T23:48:39.959Z,69.32
2022-11-08T23:51:07.842Z,72.43
2022-11-08T23:53:37.284Z,66.65
2022-11-08T23:56:05.879Z,74.85
2022-11-08T23:58:34.027Z,61.15
